Terminal Aerodrome Forecast
Issued by NWS

Home | Current Version | Previous Version | Graphics & Text | Print | Product List | Glossary On
Versions: 1 2 3 4 5 6 7 8 9 10 11 12 13 14 15 16
312
FTUS42 KMHX 160414 AAA
TAFOAJ
TAF AMD
KOAJ 160414Z 1604/1624 VRB03KT P6SM SKC
      TEMPO 1604/1608 2SM BR SCT006
     FM160800 VRB03KT 3SM BR BKN006
     FM161300 29006KT P6SM BKN015
     FM161800 01009G20KT 6SM -SHRA BKN020
     FM162200 02008KT P6SM BKN025
      AMD LTD TO CLD VIS AND WIND=

USA.gov is the U.S. government's official web portal to all federal, state and local government web resources and services.